KLZUKGVL

Guest
Details From KLZU - Gwinnett Co Briscoe Fld
To KGVL - Gainsville - Lee Gilmer Mem
Flight Number -
Tags generated
Created
Modified
Stats Distance 19 nm / 35 km
Max Altitude 2,000 ft / 610 m
Waypoints 3
Social Downloads 0
Likes 0
Share VATSIM

Download

Looking for another format? Having issues loading an existing format? Contact us
Advertisement - Login to hide

Notes

Basic altitude profile: - Ascent Rate: 2500ft/min - Ascent Speed: 250kts - Cruise Altitude: 35000ft - Cruise Speed: 420kts - Descent Rate: 1500ft/min - Descent Speed: 250kts Options: - Use NATs: yes - Use PACOTS: yes - Use low airways: yes - Use high airways: yes

Route

KLZU WOMAC KGVL

ID Type Via Altitude Latitude Longitude Leg Dist Tot Dist Heading (true) Name
O KLZU APT - 0 ft / 0 m 33.97808˚ -83.96237˚ - 0 nm - Gwinnett Co Briscoe Fld
WOMAC FIX - 2,000 ft / 610 m 34.13024˚ -83.90577˚ 9 nm 9 nm 17° / 17° -
O KGVL APT - 0 ft / 0 m 34.27260˚ -83.82990˚ 9 nm 18 nm 24° / 24° Gainsville - Lee Gilmer Mem

Altitude Profile

Advertisement - Login to hide

KLZU

Details ICAO KLZU (LZU)
Name Gwinnett Co Briscoe Fld
Region United States
Timezone America/New_York (UTC-5.0)
Stats Elevation 1,061 ft / 323 m (AMSL)
Location 33.978082° -83.962365°
Runways 1
Magnetic Variation 5.462° W

METAR

KLZU 140756Z AUTO 28004KT 10SM CLR 03/M05 A2983 RMK AO2 SLP117 T00281050

Decode

TAF

Not found

Departure Runways

ID Width Length Bearing (true) Bearing (mag) Surface Threshold Offset Overrun Length
07 98 ft / 30 m 5,995 ft / 1,827 m 63.58° 69.04° Asphalt 0 ft / 0 m 151 ft / 46 m
25 98 ft / 30 m 5,995 ft / 1,827 m 243.59° 249.05° Asphalt 0 ft / 0 m 151 ft / 46 m

KGVL

Details ICAO KGVL (GVL)
Name Gainsville - Lee Gilmer Mem
Region United States
Timezone America/New_York (UTC-5.0)
Stats Elevation 1,275 ft / 389 m (AMSL)
Location 34.272600° -83.829899°
Runways 2
Magnetic Variation 5.595° W

METAR

KGVL 140753Z AUTO 27011G18KT 10SM CLR 04/M05 A2982 RMK AO2 SLP097 T00391050

Decode

TAF

Not found

Destination Runways

ID Width Length Bearing (true) Bearing (mag) Surface Threshold Offset Overrun Length
05 98 ft / 30 m 5,504 ft / 1,678 m 40.88° 46.48° Asphalt 0 ft / 0 m 151 ft / 46 m
11 98 ft / 30 m 3,995 ft / 1,218 m 107.58° 113.18° Asphalt 0 ft / 0 m 0 ft / 0 m
23 98 ft / 30 m 5,504 ft / 1,678 m 220.89° 226.49° Asphalt 131 ft / 40 m 151 ft / 46 m
29 98 ft / 30 m 3,995 ft / 1,218 m 287.59° 293.19° Asphalt 0 ft / 0 m 0 ft / 0 m

Approach Navaids

Runway Type Ident Frequency Range Bearing (true) Bearing (mag) Slope Elevation
05 Localiser IGVL 110.55 MHz 18 nm / 33 km 40.89° 46.48° - 1,275 ft / 389 m (AMSL)
05 Glidescope IGVL 110.55 MHz 10 nm / 19 km 40.89° 46.48° 3.00° 1,275 ft / 389 m (AMSL)
05 DME IGVL 110.55 MHz 18 nm / 33 km - - - 1,275 ft / 389 m (AMSL)

Popular Alternatives